sensor_id;sensor_type;location;lat;lon;timestamp;P1;durP1;ratioP1;P2;durP2;ratioP2
8642;SDS011;4359;49.358;11.256;2023-04-24T00:00:40;5.97;;;2.80;;
8642;SDS011;4359;49.358;11.256;2023-04-24T00:03:06;5.28;;;2.55;;
8642;SDS011;4359;49.358;11.256;2023-04-24T00:05:32;11.05;;;4.20;;
8642;SDS011;4359;49.358;11.256;2023-04-24T00:07:58;4.15;;;3.03;;
8642;SDS011;4359;49.358;11.256;2023-04-24T00:10:24;4.72;;;2.58;;
8642;SDS011;4359;49.358;11.256;2023-04-24T00:12:50;6.78;;;2.90;;
8642;SDS011;4359;49.358;11.256;2023-04-24T00:15:16;6.22;;;3.25;;
8642;SDS011;4359;49.358;11.256;2023-04-24T00:17:41;4.68;;;2.90;;
8642;SDS011;4359;49.358;11.256;2023-04-24T00:20:07;4.53;;;2.80;;
8642;SDS011;4359;49.358;11.256;2023-04-24T00:22:35;7.68;;;3.00;;
8642;SDS011;4359;49.358;11.256;2023-04-24T00:25:01;6.32;;;4.18;;
8642;SDS011;4359;49.358;11.256;2023-04-24T00:27:26;5.75;;;3.58;;
8642;SDS011;4359;49.358;11.256;2023-04-24T00:29:52;6.60;;;3.42;;
8642;SDS011;4359;49.358;11.256;2023-04-24T00:32:18;4.90;;;3.03;;
8642;SDS011;4359;49.358;11.256;2023-04-24T00:34:43;8.90;;;4.85;;
8642;SDS011;4359;49.358;11.256;2023-04-24T00:37:09;6.25;;;4.35;;
8642;SDS011;4359;49.358;11.256;2023-04-24T00:39:36;6.35;;;3.40;;
8642;SDS011;4359;49.358;11.256;2023-04-24T00:42:02;6.78;;;2.95;;
8642;SDS011;4359;49.358;11.256;2023-04-24T00:44:27;8.80;;;4.65;;
8642;SDS011;4359;49.358;11.256;2023-04-24T00:46:53;6.97;;;3.88;;
8642;SDS011;4359;49.358;11.256;2023-04-24T00:49:23;5.97;;;3.25;;
8642;SDS011;4359;49.358;11.256;2023-04-24T00:51:49;8.82;;;3.00;;
8642;SDS011;4359;49.358;11.256;2023-04-24T00:54:16;6.70;;;2.90;;
8642;SDS011;4359;49.358;11.256;2023-04-24T00:56:42;4.95;;;2.70;;
8642;SDS011;4359;49.358;11.256;2023-04-24T00:59:10;4.32;;;2.72;;
8642;SDS011;4359;49.358;11.256;2023-04-24T01:01:37;10.45;;;5.75;;
8642;SDS011;4359;49.358;11.256;2023-04-24T01:04:07;8.40;;;4.72;;
8642;SDS011;4359;49.358;11.256;2023-04-24T01:06:34;5.70;;;2.88;;
8642;SDS011;4359;49.358;11.256;2023-04-24T01:09:02;4.32;;;2.40;;
8642;SDS011;4359;49.358;11.256;2023-04-24T01:11:29;6.35;;;3.03;;
8642;SDS011;4359;49.358;11.256;2023-04-24T01:13:55;7.57;;;2.95;;
8642;SDS011;4359;49.358;11.256;2023-04-24T01:16:21;3.83;;;2.75;;
8642;SDS011;4359;49.358;11.256;2023-04-24T01:18:48;5.38;;;3.15;;
8642;SDS011;4359;49.358;11.256;2023-04-24T01:21:14;4.57;;;2.80;;
8642;SDS011;4359;49.358;11.256;2023-04-24T01:23:44;5.03;;;2.85;;
8642;SDS011;4359;49.358;11.256;2023-04-24T01:26:10;9.40;;;3.28;;
8642;SDS011;4359;49.358;11.256;2023-04-24T01:28:37;4.28;;;2.50;;
8642;SDS011;4359;49.358;11.256;2023-04-24T01:31:03;5.57;;;2.72;;
8642;SDS011;4359;49.358;11.256;2023-04-24T01:33:28;3.50;;;2.38;;
8642;SDS011;4359;49.358;11.256;2023-04-24T01:35:54;5.20;;;2.55;;
8642;SDS011;4359;49.358;11.256;2023-04-24T01:38:20;5.30;;;2.80;;
8642;SDS011;4359;49.358;11.256;2023-04-24T01:40:47;3.38;;;2.30;;
8642;SDS011;4359;49.358;11.256;2023-04-24T01:43:14;5.60;;;2.60;;
8642;SDS011;4359;49.358;11.256;2023-04-24T01:45:40;4.40;;;2.53;;
8642;SDS011;4359;49.358;11.256;2023-04-24T01:48:06;4.32;;;2.70;;
8642;SDS011;4359;49.358;11.256;2023-04-24T01:50:32;4.15;;;2.67;;
8642;SDS011;4359;49.358;11.256;2023-04-24T01:52:57;4.10;;;2.47;;
8642;SDS011;4359;49.358;11.256;2023-04-24T01:55:23;4.72;;;2.90;;
8642;SDS011;4359;49.358;11.256;2023-04-24T01:57:49;3.60;;;2.72;;
8642;SDS011;4359;49.358;11.256;2023-04-24T02:00:17;9.38;;;4.00;;
8642;SDS011;4359;49.358;11.256;2023-04-24T02:02:42;11.05;;;5.32;;
8642;SDS011;4359;49.358;11.256;2023-04-24T02:05:08;8.38;;;5.65;;
8642;SDS011;4359;49.358;11.256;2023-04-24T02:07:34;17.67;;;9.57;;
8642;SDS011;4359;49.358;11.256;2023-04-24T02:10:00;12.65;;;8.05;;
8642;SDS011;4359;49.358;11.256;2023-04-24T02:12:26;12.00;;;6.10;;
8642;SDS011;4359;49.358;11.256;2023-04-24T02:14:52;6.68;;;4.45;;
8642;SDS011;4359;49.358;11.256;2023-04-24T02:17:18;6.35;;;3.60;;
8642;SDS011;4359;49.358;11.256;2023-04-24T02:19:44;6.72;;;4.05;;
8642;SDS011;4359;49.358;11.256;2023-04-24T02:22:10;5.57;;;4.03;;
8642;SDS011;4359;49.358;11.256;2023-04-24T02:24:36;7.43;;;5.30;;
8642;SDS011;4359;49.358;11.256;2023-04-24T02:27:02;7.75;;;4.55;;
8642;SDS011;4359;49.358;11.256;2023-04-24T02:29:28;6.25;;;3.42;;
8642;SDS011;4359;49.358;11.256;2023-04-24T02:31:53;5.80;;;3.28;;
8642;SDS011;4359;49.358;11.256;2023-04-24T02:34:19;4.35;;;3.20;;
8642;SDS011;4359;49.358;11.256;2023-04-24T02:36:45;5.07;;;2.90;;
8642;SDS011;4359;49.358;11.256;2023-04-24T02:39:10;3.92;;;2.90;;
8642;SDS011;4359;49.358;11.256;2023-04-24T02:41:36;6.32;;;3.38;;
8642;SDS011;4359;49.358;11.256;2023-04-24T02:44:01;4.65;;;3.03;;
8642;SDS011;4359;49.358;11.256;2023-04-24T02:46:27;5.07;;;3.25;;
8642;SDS011;4359;49.358;11.256;2023-04-24T02:48:53;5.25;;;2.80;;
8642;SDS011;4359;49.358;11.256;2023-04-24T02:51:18;3.80;;;2.70;;
8642;SDS011;4359;49.358;11.256;2023-04-24T02:53:44;4.05;;;2.85;;
8642;SDS011;4359;49.358;11.256;2023-04-24T02:56:10;4.88;;;2.92;;
8642;SDS011;4359;49.358;11.256;2023-04-24T02:58:37;5.10;;;2.85;;
8642;SDS011;4359;49.358;11.256;2023-04-24T03:01:03;4.63;;;2.90;;
8642;SDS011;4359;49.358;11.256;2023-04-24T03:03:28;4.90;;;2.90;;
8642;SDS011;4359;49.358;11.256;2023-04-24T03:05:54;5.35;;;2.90;;
8642;SDS011;4359;49.358;11.256;2023-04-24T03:08:20;7.00;;;2.83;;
8642;SDS011;4359;49.358;11.256;2023-04-24T03:10:46;4.93;;;3.20;;
8642;SDS011;4359;49.358;11.256;2023-04-24T03:13:11;4.80;;;3.05;;
8642;SDS011;4359;49.358;11.256;2023-04-24T03:15:37;4.90;;;3.10;;
8642;SDS011;4359;49.358;11.256;2023-04-24T03:18:02;6.05;;;3.00;;
8642;SDS011;4359;49.358;11.256;2023-04-24T03:20:28;5.75;;;3.28;;
8642;SDS011;4359;49.358;11.256;2023-04-24T03:22:54;5.82;;;3.45;;
8642;SDS011;4359;49.358;11.256;2023-04-24T03:25:19;7.65;;;3.63;;
8642;SDS011;4359;49.358;11.256;2023-04-24T03:27:45;5.85;;;3.15;;
8642;SDS011;4359;49.358;11.256;2023-04-24T03:30:11;6.57;;;3.78;;
8642;SDS011;4359;49.358;11.256;2023-04-24T03:32:37;5.72;;;3.47;;
8642;SDS011;4359;49.358;11.256;2023-04-24T03:35:04;4.70;;;2.92;;
8642;SDS011;4359;49.358;11.256;2023-04-24T03:37:32;4.82;;;3.17;;
8642;SDS011;4359;49.358;11.256;2023-04-24T03:39:57;6.57;;;3.90;;
8642;SDS011;4359;49.358;11.256;2023-04-24T03:42:23;6.55;;;3.30;;
8642;SDS011;4359;49.358;11.256;2023-04-24T03:44:49;5.07;;;3.47;;
8642;SDS011;4359;49.358;11.256;2023-04-24T03:47:14;4.63;;;3.30;;
8642;SDS011;4359;49.358;11.256;2023-04-24T03:49:40;4.28;;;2.78;;
8642;SDS011;4359;49.358;11.256;2023-04-24T03:52:06;5.55;;;3.78;;
8642;SDS011;4359;49.358;11.256;2023-04-24T03:54:31;5.47;;;3.45;;
8642;SDS011;4359;49.358;11.256;2023-04-24T03:56:57;9.27;;;5.93;;
8642;SDS011;4359;49.358;11.256;2023-04-24T03:59:23;9.35;;;5.50;;
8642;SDS011;4359;49.358;11.256;2023-04-24T04:01:48;10.10;;;5.57;;
8642;SDS011;4359;49.358;11.256;2023-04-24T04:04:14;6.63;;;4.10;;
8642;SDS011;4359;49.358;11.256;2023-04-24T04:06:40;5.45;;;3.47;;
8642;SDS011;4359;49.358;11.256;2023-04-24T04:09:05;4.80;;;3.42;;
8642;SDS011;4359;49.358;11.256;2023-04-24T04:11:32;5.57;;;3.92;;
8642;SDS011;4359;49.358;11.256;2023-04-24T04:13:58;5.60;;;3.65;;
8642;SDS011;4359;49.358;11.256;2023-04-24T04:16:23;5.82;;;3.78;;
8642;SDS011;4359;49.358;11.256;2023-04-24T04:18:49;7.03;;;3.95;;
8642;SDS011;4359;49.358;11.256;2023-04-24T04:21:15;6.45;;;4.10;;
8642;SDS011;4359;49.358;11.256;2023-04-24T04:23:40;5.93;;;3.58;;
8642;SDS011;4359;49.358;11.256;2023-04-24T04:26:06;4.80;;;3.50;;
8642;SDS011;4359;49.358;11.256;2023-04-24T04:28:33;9.52;;;5.20;;
8642;SDS011;4359;49.358;11.256;2023-04-24T04:30:59;9.00;;;5.22;;
8642;SDS011;4359;49.358;11.256;2023-04-24T04:33:26;8.23;;;4.95;;
8642;SDS011;4359;49.358;11.256;2023-04-24T04:35:52;12.65;;;7.43;;
8642;SDS011;4359;49.358;11.256;2023-04-24T04:38:18;6.63;;;4.70;;
8642;SDS011;4359;49.358;11.256;2023-04-24T04:40:44;9.55;;;5.47;;
8642;SDS011;4359;49.358;11.256;2023-04-24T04:43:10;11.13;;;5.03;;
8642;SDS011;4359;49.358;11.256;2023-04-24T04:45:38;12.23;;;7.10;;
8642;SDS011;4359;49.358;11.256;2023-04-24T04:48:05;13.15;;;7.28;;
8642;SDS011;4359;49.358;11.256;2023-04-24T04:50:32;8.20;;;5.10;;
8642;SDS011;4359;49.358;11.256;2023-04-24T04:52:58;12.40;;;7.03;;
8642;SDS011;4359;49.358;11.256;2023-04-24T04:55:24;25.90;;;12.40;;
8642;SDS011;4359;49.358;11.256;2023-04-24T04:57:50;15.18;;;7.93;;
8642;SDS011;4359;49.358;11.256;2023-04-24T05:00:16;15.48;;;8.00;;
8642;SDS011;4359;49.358;11.256;2023-04-24T05:02:42;16.23;;;8.93;;
8642;SDS011;4359;49.358;11.256;2023-04-24T05:05:08;17.25;;;8.80;;
8642;SDS011;4359;49.358;11.256;2023-04-24T05:07:34;12.98;;;7.93;;
8642;SDS011;4359;49.358;11.256;2023-04-24T05:10:00;13.63;;;7.47;;
8642;SDS011;4359;49.358;11.256;2023-04-24T05:12:25;11.23;;;6.47;;
8642;SDS011;4359;49.358;11.256;2023-04-24T05:14:51;9.77;;;6.25;;
8642;SDS011;4359;49.358;11.256;2023-04-24T05:17:17;10.75;;;5.85;;
8642;SDS011;4359;49.358;11.256;2023-04-24T05:19:43;9.55;;;5.97;;
8642;SDS011;4359;49.358;11.256;2023-04-24T05:22:09;13.52;;;6.30;;
8642;SDS011;4359;49.358;11.256;2023-04-24T05:24:35;12.70;;;6.00;;
8642;SDS011;4359;49.358;11.256;2023-04-24T05:27:04;10.27;;;5.03;;
8642;SDS011;4359;49.358;11.256;2023-04-24T05:29:30;10.85;;;5.35;;
8642;SDS011;4359;49.358;11.256;2023-04-24T05:31:58;10.55;;;5.10;;
8642;SDS011;4359;49.358;11.256;2023-04-24T05:34:24;8.10;;;4.88;;
8642;SDS011;4359;49.358;11.256;2023-04-24T05:36:50;8.10;;;4.47;;
8642;SDS011;4359;49.358;11.256;2023-04-24T05:39:16;9.25;;;4.63;;
8642;SDS011;4359;49.358;11.256;2023-04-24T05:41:42;8.88;;;5.18;;
8642;SDS011;4359;49.358;11.256;2023-04-24T05:44:08;10.05;;;4.15;;
8642;SDS011;4359;49.358;11.256;2023-04-24T05:46:34;6.50;;;4.10;;
8642;SDS011;4359;49.358;11.256;2023-04-24T05:49:00;9.00;;;4.38;;
8642;SDS011;4359;49.358;11.256;2023-04-24T05:51:26;7.50;;;4.20;;
8642;SDS011;4359;49.358;11.256;2023-04-24T05:53:51;7.78;;;4.38;;
8642;SDS011;4359;49.358;11.256;2023-04-24T05:56:17;6.20;;;4.30;;
8642;SDS011;4359;49.358;11.256;2023-04-24T05:58:43;7.20;;;3.75;;
8642;SDS011;4359;49.358;11.256;2023-04-24T06:01:10;7.65;;;3.78;;
8642;SDS011;4359;49.358;11.256;2023-04-24T06:03:36;5.20;;;3.15;;
8642;SDS011;4359;49.358;11.256;2023-04-24T06:06:02;10.25;;;4.05;;
8642;SDS011;4359;49.358;11.256;2023-04-24T06:08:28;4.40;;;2.90;;
8642;SDS011;4359;49.358;11.256;2023-04-24T06:10:54;5.10;;;3.22;;
8642;SDS011;4359;49.358;11.256;2023-04-24T06:13:20;4.40;;;3.05;;
8642;SDS011;4359;49.358;11.256;2023-04-24T06:15:45;5.53;;;3.10;;
8642;SDS011;4359;49.358;11.256;2023-04-24T06:18:11;5.32;;;2.60;;
8642;SDS011;4359;49.358;11.256;2023-04-24T06:20:37;4.80;;;2.40;;
8642;SDS011;4359;49.358;11.256;2023-04-24T06:23:03;4.78;;;2.35;;
8642;SDS011;4359;49.358;11.256;2023-04-24T06:25:29;4.25;;;2.17;;
8642;SDS011;4359;49.358;11.256;2023-04-24T06:27:56;5.38;;;1.85;;
8642;SDS011;4359;49.358;11.256;2023-04-24T06:30:22;3.70;;;2.00;;
8642;SDS011;4359;49.358;11.256;2023-04-24T06:32:48;4.22;;;1.92;;
8642;SDS011;4359;49.358;11.256;2023-04-24T06:35:13;5.13;;;1.83;;
8642;SDS011;4359;49.358;11.256;2023-04-24T06:37:39;4.53;;;2.03;;
8642;SDS011;4359;49.358;11.256;2023-04-24T06:40:07;6.18;;;1.70;;
8642;SDS011;4359;49.358;11.256;2023-04-24T06:42:33;4.43;;;1.70;;
8642;SDS011;4359;49.358;11.256;2023-04-24T06:45:00;2.40;;;1.40;;
8642;SDS011;4359;49.358;11.256;2023-04-24T06:47:27;2.83;;;1.30;;
8642;SDS011;4359;49.358;11.256;2023-04-24T06:49:52;2.80;;;1.50;;
8642;SDS011;4359;49.358;11.256;2023-04-24T06:52:18;4.00;;;1.70;;
8642;SDS011;4359;49.358;11.256;2023-04-24T06:54:44;4.32;;;1.52;;
8642;SDS011;4359;49.358;11.256;2023-04-24T06:57:10;2.88;;;1.55;;
8642;SDS011;4359;49.358;11.256;2023-04-24T06:59:36;4.15;;;1.50;;
8642;SDS011;4359;49.358;11.256;2023-04-24T07:02:02;4.03;;;1.13;;
8642;SDS011;4359;49.358;11.256;2023-04-24T07:04:28;2.47;;;1.05;;
8642;SDS011;4359;49.358;11.256;2023-04-24T07:06:54;1.95;;;1.08;;
8642;SDS011;4359;49.358;11.256;2023-04-24T07:09:21;3.03;;;1.08;;
8642;SDS011;4359;49.358;11.256;2023-04-24T07:11:48;4.20;;;1.20;;
8642;SDS011;4359;49.358;11.256;2023-04-24T07:14:14;2.95;;;1.33;;
8642;SDS011;4359;49.358;11.256;2023-04-24T07:16:40;3.30;;;1.45;;
8642;SDS011;4359;49.358;11.256;2023-04-24T07:19:07;3.45;;;1.10;;
8642;SDS011;4359;49.358;11.256;2023-04-24T07:21:33;3.47;;;1.10;;
8642;SDS011;4359;49.358;11.256;2023-04-24T07:23:58;1.70;;;0.90;;
8642;SDS011;4359;49.358;11.256;2023-04-24T07:26:25;2.63;;;0.93;;
8642;SDS011;4359;49.358;11.256;2023-04-24T07:28:51;3.20;;;1.00;;
8642;SDS011;4359;49.358;11.256;2023-04-24T07:31:17;6.45;;;1.08;;
8642;SDS011;4359;49.358;11.256;2023-04-24T07:33:43;2.53;;;1.05;;
8642;SDS011;4359;49.358;11.256;2023-04-24T07:36:08;2.28;;;0.90;;
8642;SDS011;4359;49.358;11.256;2023-04-24T07:38:40;2.78;;;0.93;;
8642;SDS011;4359;49.358;11.256;2023-04-24T07:41:07;5.18;;;1.00;;
8642;SDS011;4359;49.358;11.256;2023-04-24T07:43:32;5.15;;;1.50;;
8642;SDS011;4359;49.358;11.256;2023-04-24T07:45:58;2.60;;;1.10;;
8642;SDS011;4359;49.358;11.256;2023-04-24T07:48:24;2.70;;;1.13;;
8642;SDS011;4359;49.358;11.256;2023-04-24T07:50:51;6.05;;;1.20;;
8642;SDS011;4359;49.358;11.256;2023-04-24T07:53:17;3.38;;;1.75;;
8642;SDS011;4359;49.358;11.256;2023-04-24T07:55:43;2.55;;;1.30;;
8642;SDS011;4359;49.358;11.256;2023-04-24T07:58:08;2.38;;;1.40;;
8642;SDS011;4359;49.358;11.256;2023-04-24T08:00:34;2.95;;;1.48;;
8642;SDS011;4359;49.358;11.256;2023-04-24T08:03:00;2.42;;;1.30;;
8642;SDS011;4359;49.358;11.256;2023-04-24T08:05:26;3.55;;;1.70;;
8642;SDS011;4359;49.358;11.256;2023-04-24T08:07:53;3.13;;;1.40;;
8642;SDS011;4359;49.358;11.256;2023-04-24T08:10:20;2.45;;;1.60;;
8642;SDS011;4359;49.358;11.256;2023-04-24T08:12:49;4.55;;;1.48;;
8642;SDS011;4359;49.358;11.256;2023-04-24T08:15:15;2.95;;;1.63;;
8642;SDS011;4359;49.358;11.256;2023-04-24T08:17:41;4.55;;;1.70;;
8642;SDS011;4359;49.358;11.256;2023-04-24T08:20:08;4.65;;;1.73;;
8642;SDS011;4359;49.358;11.256;2023-04-24T08:22:38;3.88;;;1.60;;
8642;SDS011;4359;49.358;11.256;2023-04-24T08:25:04;2.20;;;1.35;;
8642;SDS011;4359;49.358;11.256;2023-04-24T08:27:30;4.20;;;1.75;;
8642;SDS011;4359;49.358;11.256;2023-04-24T08:29:56;2.28;;;1.42;;
8642;SDS011;4359;49.358;11.256;2023-04-24T08:32:22;4.13;;;1.67;;
8642;SDS011;4359;49.358;11.256;2023-04-24T08:34:48;2.85;;;1.60;;
8642;SDS011;4359;49.358;11.256;2023-04-24T08:37:14;3.58;;;1.38;;
8642;SDS011;4359;49.358;11.256;2023-04-24T08:39:40;4.13;;;1.33;;
8642;SDS011;4359;49.358;11.256;2023-04-24T08:42:05;5.35;;;1.80;;
8642;SDS011;4359;49.358;11.256;2023-04-24T08:44:33;4.68;;;1.40;;
8642;SDS011;4359;49.358;11.256;2023-04-24T08:47:03;6.35;;;1.85;;
8642;SDS011;4359;49.358;11.256;2023-04-24T08:49:36;3.75;;;1.80;;
8642;SDS011;4359;49.358;11.256;2023-04-24T08:52:03;3.10;;;1.90;;
8642;SDS011;4359;49.358;11.256;2023-04-24T08:54:30;2.83;;;1.80;;
8642;SDS011;4359;49.358;11.256;2023-04-24T08:57:00;6.32;;;2.08;;
8642;SDS011;4359;49.358;11.256;2023-04-24T08:59:26;2.70;;;1.67;;
8642;SDS011;4359;49.358;11.256;2023-04-24T09:01:53;4.05;;;2.17;;
8642;SDS011;4359;49.358;11.256;2023-04-24T09:04:20;3.28;;;2.08;;
8642;SDS011;4359;49.358;11.256;2023-04-24T09:06:49;5.35;;;2.15;;
8642;SDS011;4359;49.358;11.256;2023-04-24T09:09:23;4.70;;;2.40;;
8642;SDS011;4359;49.358;11.256;2023-04-24T09:11:50;3.53;;;1.65;;
8642;SDS011;4359;49.358;11.256;2023-04-24T09:14:18;6.40;;;2.13;;
8642;SDS011;4359;49.358;11.256;2023-04-24T09:16:45;5.22;;;2.05;;
8642;SDS011;4359;49.358;11.256;2023-04-24T09:19:11;2.30;;;1.50;;
8642;SDS011;4359;49.358;11.256;2023-04-24T09:21:37;3.90;;;1.60;;
8642;SDS011;4359;49.358;11.256;2023-04-24T09:24:04;3.53;;;1.60;;
8642;SDS011;4359;49.358;11.256;2023-04-24T09:26:31;4.45;;;1.90;;
8642;SDS011;4359;49.358;11.256;2023-04-24T09:28:58;2.85;;;1.75;;
8642;SDS011;4359;49.358;11.256;2023-04-24T09:31:24;3.15;;;1.73;;
8642;SDS011;4359;49.358;11.256;2023-04-24T09:34:14;2.95;;;2.00;;
8642;SDS011;4359;49.358;11.256;2023-04-24T09:36:39;4.35;;;1.90;;
8642;SDS011;4359;49.358;11.256;2023-04-24T09:39:08;3.20;;;1.77;;
8642;SDS011;4359;49.358;11.256;2023-04-24T09:41:47;3.72;;;1.90;;
8642;SDS011;4359;49.358;11.256;2023-04-24T09:44:18;2.38;;;1.70;;
8642;SDS011;4359;49.358;11.256;2023-04-24T09:49:28;3.63;;;1.85;;
8642;SDS011;4359;49.358;11.256;2023-04-24T09:52:08;5.85;;;1.92;;
8642;SDS011;4359;49.358;11.256;2023-04-24T09:54:35;4.22;;;1.67;;
8642;SDS011;4359;49.358;11.256;2023-04-24T09:57:04;4.13;;;1.83;;
8642;SDS011;4359;49.358;11.256;2023-04-24T09:59:32;2.63;;;1.40;;
8642;SDS011;4359;49.358;11.256;2023-04-24T10:01:58;2.33;;;1.50;;
8642;SDS011;4359;49.358;11.256;2023-04-24T10:04:25;2.28;;;1.27;;
8642;SDS011;4359;49.358;11.256;2023-04-24T10:06:54;3.47;;;1.60;;
8642;SDS011;4359;49.358;11.256;2023-04-24T10:09:22;4.00;;;1.60;;
8642;SDS011;4359;49.358;11.256;2023-04-24T10:11:50;4.40;;;1.40;;
8642;SDS011;4359;49.358;11.256;2023-04-24T10:14:17;3.05;;;1.27;;
8642;SDS011;4359;49.358;11.256;2023-04-24T10:16:47;6.70;;;1.23;;
8642;SDS011;4359;49.358;11.256;2023-04-24T10:19:14;3.65;;;1.40;;
8642;SDS011;4359;49.358;11.256;2023-04-24T10:21:41;2.85;;;1.38;;
8642;SDS011;4359;49.358;11.256;2023-04-24T10:24:20;3.17;;;1.50;;
8642;SDS011;4359;49.358;11.256;2023-04-24T10:26:46;5.03;;;1.50;;
8642;SDS011;4359;49.358;11.256;2023-04-24T10:29:14;2.55;;;1.30;;
8642;SDS011;4359;49.358;11.256;2023-04-24T10:31:43;4.55;;;1.20;;
8642;SDS011;4359;49.358;11.256;2023-04-24T10:34:11;3.90;;;1.50;;
8642;SDS011;4359;49.358;11.256;2023-04-24T10:36:48;2.20;;;1.15;;
8642;SDS011;4359;49.358;11.256;2023-04-24T10:39:17;2.88;;;1.40;;
8642;SDS011;4359;49.358;11.256;2023-04-24T10:41:44;3.17;;;1.25;;
8642;SDS011;4359;49.358;11.256;2023-04-24T10:44:14;2.22;;;1.10;;
8642;SDS011;4359;49.358;11.256;2023-04-24T10:46:45;4.13;;;1.60;;
8642;SDS011;4359;49.358;11.256;2023-04-24T10:51:53;5.20;;;1.20;;
8642;SDS011;4359;49.358;11.256;2023-04-24T10:59:45;3.45;;;1.20;;
8642;SDS011;4359;49.358;11.256;2023-04-24T11:02:14;2.10;;;1.10;;
8642;SDS011;4359;49.358;11.256;2023-04-24T11:04:40;3.50;;;0.80;;
8642;SDS011;4359;49.358;11.256;2023-04-24T11:07:08;3.60;;;0.90;;
8642;SDS011;4359;49.358;11.256;2023-04-24T11:09:35;4.20;;;1.00;;
8642;SDS011;4359;49.358;11.256;2023-04-24T11:17:30;2.25;;;0.90;;
8642;SDS011;4359;49.358;11.256;2023-04-24T11:20:02;1.65;;;0.80;;
8642;SDS011;4359;49.358;11.256;2023-04-24T11:22:35;5.00;;;1.20;;
8642;SDS011;4359;49.358;11.256;2023-04-24T11:25:04;4.10;;;1.05;;
8642;SDS011;4359;49.358;11.256;2023-04-24T11:27:32;4.20;;;1.00;;
8642;SDS011;4359;49.358;11.256;2023-04-24T11:30:05;2.75;;;1.10;;
8642;SDS011;4359;49.358;11.256;2023-04-24T11:32:41;2.63;;;1.45;;
8642;SDS011;4359;49.358;11.256;2023-04-24T11:37:40;2.83;;;1.00;;
8642;SDS011;4359;49.358;11.256;2023-04-24T11:40:17;6.65;;;0.90;;
8642;SDS011;4359;49.358;11.256;2023-04-24T11:42:45;5.97;;;1.05;;
8642;SDS011;4359;49.358;11.256;2023-04-24T11:45:13;1.77;;;0.80;;
8642;SDS011;4359;49.358;11.256;2023-04-24T11:47:41;1.88;;;0.88;;
8642;SDS011;4359;49.358;11.256;2023-04-24T11:50:08;1.45;;;0.73;;
8642;SDS011;4359;49.358;11.256;2023-04-24T11:52:40;1.55;;;0.70;;
8642;SDS011;4359;49.358;11.256;2023-04-24T11:55:12;2.45;;;0.90;;
8642;SDS011;4359;49.358;11.256;2023-04-24T11:57:53;4.25;;;0.90;;
8642;SDS011;4359;49.358;11.256;2023-04-24T12:03:03;2.47;;;0.90;;
8642;SDS011;4359;49.358;11.256;2023-04-24T12:05:31;1.65;;;0.98;;
8642;SDS011;4359;49.358;11.256;2023-04-24T12:07:57;2.40;;;1.20;;
8642;SDS011;4359;49.358;11.256;2023-04-24T12:10:23;4.82;;;1.10;;
8642;SDS011;4359;49.358;11.256;2023-04-24T12:12:50;2.33;;;1.30;;
8642;SDS011;4359;49.358;11.256;2023-04-24T12:15:17;3.50;;;1.55;;
8642;SDS011;4359;49.358;11.256;2023-04-24T12:17:43;3.72;;;1.35;;
8642;SDS011;4359;49.358;11.256;2023-04-24T12:20:09;2.75;;;1.25;;
8642;SDS011;4359;49.358;11.256;2023-04-24T12:22:46;3.10;;;1.55;;
8642;SDS011;4359;49.358;11.256;2023-04-24T12:25:14;3.65;;;1.60;;
8642;SDS011;4359;49.358;11.256;2023-04-24T12:27:41;4.47;;;1.40;;
8642;SDS011;4359;49.358;11.256;2023-04-24T12:30:09;3.70;;;1.40;;
8642;SDS011;4359;49.358;11.256;2023-04-24T12:32:59;3.55;;;1.52;;
8642;SDS011;4359;49.358;11.256;2023-04-24T12:35:27;6.55;;;1.50;;
8642;SDS011;4359;49.358;11.256;2023-04-24T12:37:59;2.50;;;1.40;;
8642;SDS011;4359;49.358;11.256;2023-04-24T12:40:38;4.45;;;1.20;;
8642;SDS011;4359;49.358;11.256;2023-04-24T12:45:40;4.53;;;1.30;;
8642;SDS011;4359;49.358;11.256;2023-04-24T12:48:18;2.38;;;1.10;;
8642;SDS011;4359;49.358;11.256;2023-04-24T12:50:46;2.33;;;1.33;;
8642;SDS011;4359;49.358;11.256;2023-04-24T12:53:11;2.40;;;1.10;;
8642;SDS011;4359;49.358;11.256;2023-04-24T12:55:37;1.98;;;1.10;;
8642;SDS011;4359;49.358;11.256;2023-04-24T12:58:03;2.17;;;1.20;;
8642;SDS011;4359;49.358;11.256;2023-04-24T13:00:31;3.88;;;0.90;;
8642;SDS011;4359;49.358;11.256;2023-04-24T13:02:57;2.20;;;0.88;;
8642;SDS011;4359;49.358;11.256;2023-04-24T13:05:23;2.10;;;1.00;;
8642;SDS011;4359;49.358;11.256;2023-04-24T13:07:48;2.15;;;1.08;;
8642;SDS011;4359;49.358;11.256;2023-04-24T13:10:17;1.65;;;0.90;;
8642;SDS011;4359;49.358;11.256;2023-04-24T13:12:44;2.72;;;1.10;;
8642;SDS011;4359;49.358;11.256;2023-04-24T13:15:11;1.80;;;1.00;;
8642;SDS011;4359;49.358;11.256;2023-04-24T13:17:37;3.42;;;1.20;;
8642;SDS011;4359;49.358;11.256;2023-04-24T13:20:05;2.22;;;1.23;;
8642;SDS011;4359;49.358;11.256;2023-04-24T13:22:31;2.13;;;1.10;;
8642;SDS011;4359;49.358;11.256;2023-04-24T13:24:57;2.70;;;1.33;;
8642;SDS011;4359;49.358;11.256;2023-04-24T13:27:23;3.35;;;1.55;;
8642;SDS011;4359;49.358;11.256;2023-04-24T13:29:49;3.92;;;1.27;;
8642;SDS011;4359;49.358;11.256;2023-04-24T13:32:14;2.53;;;1.30;;
8642;SDS011;4359;49.358;11.256;2023-04-24T13:34:40;6.25;;;1.90;;
8642;SDS011;4359;49.358;11.256;2023-04-24T13:37:09;4.10;;;1.40;;
8642;SDS011;4359;49.358;11.256;2023-04-24T13:39:35;2.97;;;1.35;;
8642;SDS011;4359;49.358;11.256;2023-04-24T13:42:01;4.47;;;1.60;;
8642;SDS011;4359;49.358;11.256;2023-04-24T13:44:27;2.85;;;1.52;;
8642;SDS011;4359;49.358;11.256;2023-04-24T13:46:54;3.38;;;1.63;;
8642;SDS011;4359;49.358;11.256;2023-04-24T13:49:22;2.83;;;1.27;;
8642;SDS011;4359;49.358;11.256;2023-04-24T13:51:52;3.25;;;1.20;;
8642;SDS011;4359;49.358;11.256;2023-04-24T13:54:18;4.90;;;1.73;;
8642;SDS011;4359;49.358;11.256;2023-04-24T13:56:44;2.25;;;1.50;;
8642;SDS011;4359;49.358;11.256;2023-04-24T13:59:13;2.58;;;1.70;;
8642;SDS011;4359;49.358;11.256;2023-04-24T14:01:41;3.58;;;1.90;;
8642;SDS011;4359;49.358;11.256;2023-04-24T14:04:07;4.50;;;1.77;;
8642;SDS011;4359;49.358;11.256;2023-04-24T14:06:32;3.28;;;1.67;;
8642;SDS011;4359;49.358;11.256;2023-04-24T14:08:58;4.50;;;2.15;;
8642;SDS011;4359;49.358;11.256;2023-04-24T14:11:24;5.00;;;2.00;;
8642;SDS011;4359;49.358;11.256;2023-04-24T14:13:51;5.50;;;1.80;;
8642;SDS011;4359;49.358;11.256;2023-04-24T14:16:17;6.13;;;1.90;;
8642;SDS011;4359;49.358;11.256;2023-04-24T14:18:42;4.38;;;2.20;;
8642;SDS011;4359;49.358;11.256;2023-04-24T14:21:08;3.80;;;2.28;;
8642;SDS011;4359;49.358;11.256;2023-04-24T14:23:36;3.35;;;2.10;;
8642;SDS011;4359;49.358;11.256;2023-04-24T14:26:02;3.70;;;2.30;;
8642;SDS011;4359;49.358;11.256;2023-04-24T14:28:31;5.15;;;2.25;;
8642;SDS011;4359;49.358;11.256;2023-04-24T14:30:57;4.35;;;2.33;;
8642;SDS011;4359;49.358;11.256;2023-04-24T14:33:25;3.30;;;2.15;;
8642;SDS011;4359;49.358;11.256;2023-04-24T14:35:51;3.70;;;2.08;;
8642;SDS011;4359;49.358;11.256;2023-04-24T14:38:16;4.07;;;1.85;;
8642;SDS011;4359;49.358;11.256;2023-04-24T14:40:42;3.05;;;1.85;;
8642;SDS011;4359;49.358;11.256;2023-04-24T14:43:11;2.72;;;1.80;;
8642;SDS011;4359;49.358;11.256;2023-04-24T14:45:37;2.95;;;1.63;;
8642;SDS011;4359;49.358;11.256;2023-04-24T14:48:05;3.25;;;2.13;;
8642;SDS011;4359;49.358;11.256;2023-04-24T14:50:33;3.47;;;2.00;;
8642;SDS011;4359;49.358;11.256;2023-04-24T14:52:59;2.45;;;1.50;;
8642;SDS011;4359;49.358;11.256;2023-04-24T14:55:26;3.97;;;1.52;;
8642;SDS011;4359;49.358;11.256;2023-04-24T14:57:53;4.55;;;1.95;;
8642;SDS011;4359;49.358;11.256;2023-04-24T15:00:19;4.50;;;2.25;;
8642;SDS011;4359;49.358;11.256;2023-04-24T15:02:45;3.55;;;1.95;;
8642;SDS011;4359;49.358;11.256;2023-04-24T15:05:11;3.53;;;1.60;;
8642;SDS011;4359;49.358;11.256;2023-04-24T15:07:37;4.45;;;1.33;;
8642;SDS011;4359;49.358;11.256;2023-04-24T15:10:03;3.58;;;1.50;;
8642;SDS011;4359;49.358;11.256;2023-04-24T15:12:30;3.70;;;1.40;;
8642;SDS011;4359;49.358;11.256;2023-04-24T15:14:57;3.42;;;1.65;;
8642;SDS011;4359;49.358;11.256;2023-04-24T15:17:23;3.10;;;1.77;;
8642;SDS011;4359;49.358;11.256;2023-04-24T15:19:48;2.38;;;1.33;;
8642;SDS011;4359;49.358;11.256;2023-04-24T15:22:14;2.60;;;1.50;;